Accueil
METAR-TAF:

METAR-TAF

Aéroports :

Cedar City, Utah, États-Unis

latitude: 37-42-24N, longitude: 113-05-48W, altitude: 1715 m

Observation

Le bulletin a été fait il y a 54 minutes, à 12:53 UTC
Vent calme
Température 12°C
Humidité 20%
Pression 1023 hPa
Visibilité: 16.1 km
Ciel clair

METAR: KCDC 131253Z AUTO 00000KT 10SM CLR 12/M10 A3020 RMK AO2 SLP151 T01171100

Heure: 07:47 (13:47 UTC)

Prévision

Le bulletin a été fait il y a 2 heures et 27 minutes, à 11:20 UTC
Prévision valable du 13 à 12 UTC au 14 à 12 UTC
Vent 5 kt de direction variable
Visibilité: 10 km
Ciel clair
A partir de 13 à 1800 UTC
Vent 10 kt de sud-ouest avec des rafales jusqu'à 18 kt
Visibilité: 10 km
Nuages épars à une hauteur de 22000 ft
A partir de 14 à 0400 UTC
Vent 8 kt de sud/sud-est
Visibilité: 10 km
Nuages épars à une hauteur de 20000 ft

TAF: KCDC 131120Z 1312/1412 VRB05KT P6SM SKC FM131800 22010G18KT P6SM SCT220 FM140400 16008KT P6SM SCT200

Observations et prévisions météorologiques de plus de 4000 aéroports (messages METAR et TAF).

Les stations disponibles sont représentées par des disques jaunes et rouges sur la carte.

Passer la souris dessus pour voir le nom de la station.

Cliquer dessus pour voir les observations et prévisions météorologiques.

Pour changer de carte: cliquez sur les boutons verts avec une croix noire pour zoomer, sur le bouton vert avec un tiret pour effectuer un zoom arrière, ou sur les flèches vertes pour les cartes adjacentes.


METAR-TAF: